createdAt,value
2019-06-08T00:01:35.785Z,98118.70
2019-06-08T00:04:08.886Z,98109.77
2019-06-08T00:06:42.944Z,98110.80
2019-06-08T00:09:21.932Z,98112.08
2019-06-08T00:11:56.998Z,98120.14
2019-06-08T00:14:35.039Z,98117.63
2019-06-08T00:17:08.462Z,98121.88
2019-06-08T00:19:42.482Z,98124.70
2019-06-08T00:22:19.781Z,98122.89
2019-06-08T00:24:54.047Z,98120.06
2019-06-08T00:27:27.523Z,98125.57
2019-06-08T00:30:01.538Z,98127.23
2019-06-08T00:32:35.891Z,98118.69
2019-06-08T00:35:10.172Z,98119.67
2019-06-08T00:37:44.002Z,98115.36
2019-06-08T00:40:19.051Z,98106.67
2019-06-08T00:42:52.104Z,98110.39
2019-06-08T00:45:27.007Z,98116.77
2019-06-08T00:47:59.680Z,98109.11
2019-06-08T00:50:32.357Z,98114.25
2019-06-08T00:53:08.815Z,98119.38
2019-06-08T00:55:40.626Z,98126.09
2019-06-08T00:58:13.197Z,98126.77
2019-06-08T01:00:49.053Z,98130.09
2019-06-08T01:03:21.646Z,98130.12
2019-06-08T01:05:55.471Z,98133.63
2019-06-08T01:08:32.790Z,98134.29
2019-06-08T01:11:05.713Z,98143.73
2019-06-08T01:13:39.103Z,98143.73
2019-06-08T01:16:14.696Z,98134.08
2019-06-08T01:18:47.560Z,98138.68
2019-06-08T01:21:21.704Z,98143.35
2019-06-08T01:23:57.587Z,98143.09
2019-06-08T01:26:32.616Z,98141.98
2019-06-08T01:29:05.620Z,98143.03
2019-06-08T01:31:40.885Z,98151.22
2019-06-08T01:34:13.731Z,98138.07
2019-06-08T01:36:46.006Z,98139.18
2019-06-08T01:39:18.734Z,98140.50
2019-06-08T01:41:52.606Z,98138.47
2019-06-08T01:44:28.068Z,98144.56
2019-06-08T01:46:59.749Z,98145.09
2019-06-08T01:49:32.667Z,98144.02
2019-06-08T01:52:04.974Z,98143.78
2019-06-08T01:54:36.708Z,98144.89
2019-06-08T01:57:08.611Z,98147.58
2019-06-08T01:59:41.593Z,98143.52
2019-06-08T02:02:13.854Z,98144.73
2019-06-08T02:04:47.015Z,98149.19
2019-06-08T02:07:19.487Z,98142.09
2019-06-08T02:09:56.874Z,98143.80
2019-06-08T02:12:31.153Z,98148.52
2019-06-08T02:15:03.074Z,98139.84
2019-06-08T02:17:36.471Z,98143.19
2019-06-08T02:20:11.385Z,98142.92
2019-06-08T02:22:43.246Z,98143.47
2019-06-08T02:25:17.674Z,98140.55
2019-06-08T02:27:50.649Z,98146.64
2019-06-08T02:30:23.479Z,98149.94
2019-06-08T02:32:56.890Z,98154.49
2019-06-08T02:35:30.675Z,98156.23
2019-06-08T02:38:03.804Z,98152.30
2019-06-08T02:40:36.879Z,98155.31
2019-06-08T02:43:10.295Z,98163.81
2019-06-08T02:45:43.273Z,98159.72
2019-06-08T02:48:16.345Z,98167.45
2019-06-08T02:50:55.586Z,98172.39
2019-06-08T02:53:32.138Z,98167.77
2019-06-08T02:56:06.790Z,98167.28
2019-06-08T02:58:41.243Z,98169.58
2019-06-08T03:01:17.089Z,98171.19
2019-06-08T03:03:53.354Z,98170.46
2019-06-08T03:06:30.145Z,98169.45
2019-06-08T03:09:05.803Z,98166.53
2019-06-08T03:11:39.358Z,98170.28
2019-06-08T03:14:16.494Z,98179.52
2019-06-08T03:16:50.742Z,98167.89
2019-06-08T03:19:23.399Z,98176.67
2019-06-08T03:21:57.038Z,98172.52
2019-06-08T03:24:32.251Z,98182.87
2019-06-08T03:27:06.753Z,98186.84
2019-06-08T03:29:41.582Z,98185.73
2019-06-08T03:32:15.764Z,98184.83
2019-06-08T03:34:55.658Z,98183.09
2019-06-08T03:37:23.082Z,98189.34
2019-06-08T03:39:55.332Z,98185.32
2019-06-08T03:42:27.797Z,98186.75
2019-06-08T03:45:04.400Z,98190.03
2019-06-08T03:47:39.654Z,98191.31
2019-06-08T03:50:12.682Z,98191.18
2019-06-08T03:52:46.254Z,98191.10
2019-06-08T03:55:19.472Z,98193.20
2019-06-08T03:57:52.001Z,98192.77
2019-06-08T04:00:24.279Z,98199.78
2019-06-08T04:03:01.251Z,98207.63
2019-06-08T04:05:37.954Z,98207.75
2019-06-08T04:08:12.735Z,98217.80
2019-06-08T04:10:46.813Z,98221.82
2019-06-08T04:13:24.806Z,98217.76
2019-06-08T04:15:57.732Z,98227.44
2019-06-08T04:18:31.442Z,98225.01
2019-06-08T04:21:05.899Z,98231.19
2019-06-08T04:23:40.473Z,98229.86
2019-06-08T04:26:13.871Z,98230.98
2019-06-08T04:28:47.937Z,98229.64
2019-06-08T04:31:21.360Z,98245.07
2019-06-08T04:33:54.782Z,98236.41
2019-06-08T04:36:28.220Z,98235.34
2019-06-08T04:39:04.167Z,98240.63
2019-06-08T04:41:35.889Z,98244.05
2019-06-08T04:44:08.648Z,98242.88
2019-06-08T04:46:43.040Z,98248.95
2019-06-08T04:49:16.268Z,98255.77
2019-06-08T04:51:50.584Z,98254.23
2019-06-08T04:54:23.908Z,98262.23
2019-06-08T04:56:56.723Z,98252.98
2019-06-08T04:59:32.807Z,98253.27
2019-06-08T05:02:07.765Z,98258.60
2019-06-08T05:04:41.014Z,98259.77
2019-06-08T05:07:17.795Z,98258.80
2019-06-08T05:09:51.056Z,98263.36
2019-06-08T05:12:23.044Z,98268.73
2019-06-08T05:14:55.019Z,98267.73
2019-06-08T05:17:27.794Z,98265.64
2019-06-08T05:20:01.024Z,98266.62
2019-06-08T05:22:39.457Z,98279.41
2019-06-08T05:25:12.966Z,98280.41
2019-06-08T05:27:47.764Z,98280.15
2019-06-08T05:30:22.320Z,98291.41
2019-06-08T05:32:54.675Z,98288.88
2019-06-08T05:35:29.113Z,98296.22
2019-06-08T05:38:00.826Z,98296.43
2019-06-08T05:40:39.535Z,98299.83
2019-06-08T05:43:14.401Z,98302.28
2019-06-08T05:45:48.485Z,98309.67
2019-06-08T05:48:21.907Z,98304.59
2019-06-08T05:51:03.644Z,98312.09
2019-06-08T05:53:31.496Z,98321.21
2019-06-08T05:56:04.249Z,98322.50
2019-06-08T05:58:39.847Z,98319.98
2019-06-08T06:01:13.941Z,98322.87
2019-06-08T06:03:48.720Z,98325.55
2019-06-08T06:06:21.452Z,98326.41
2019-06-08T06:08:56.184Z,98329.73
2019-06-08T06:11:29.952Z,98337.04
2019-06-08T06:14:01.695Z,98332.41
2019-06-08T06:16:34.200Z,98330.55
2019-06-08T06:19:08.298Z,98333.21
2019-06-08T06:21:41.036Z,98340.67
2019-06-08T06:24:14.494Z,98348.88
2019-06-08T06:26:47.383Z,98342.16
2019-06-08T06:29:22.900Z,98342.16
2019-06-08T06:31:56.587Z,98344.33
2019-06-08T06:34:28.374Z,98347.88
2019-06-08T06:37:02.639Z,98346.31
2019-06-08T06:39:35.144Z,98346.27
2019-06-08T06:42:08.193Z,98341.10
2019-06-08T06:44:42.410Z,98350.69
2019-06-08T06:47:17.979Z,98350.27
2019-06-08T06:49:52.620Z,98356.53
2019-06-08T06:52:27.750Z,98352.80
2019-06-08T06:55:00.898Z,98361.21
2019-06-08T06:57:36.520Z,98366.75
2019-06-08T07:00:10.405Z,98365.73
2019-06-08T07:02:47.615Z,98367.67
2019-06-08T07:05:20.707Z,98366.85
2019-06-08T07:07:56.138Z,98372.34
2019-06-08T07:10:30.206Z,98373.16
2019-06-08T07:13:03.002Z,98372.77
2019-06-08T07:15:41.822Z,98374.30
2019-06-08T07:18:17.404Z,98374.40
2019-06-08T07:20:52.336Z,98379.63
2019-06-08T07:23:24.967Z,98383.22
2019-06-08T07:26:00.426Z,98383.22
2019-06-08T07:28:33.024Z,98382.39
2019-06-08T07:31:05.940Z,98385.34
2019-06-08T07:33:40.910Z,98385.97
2019-06-08T07:36:15.043Z,98393.19
2019-06-08T07:38:49.884Z,98392.86
2019-06-08T07:41:25.361Z,98392.31
2019-06-08T07:44:00.007Z,98389.59
2019-06-08T07:46:33.851Z,98389.05
2019-06-08T07:49:07.847Z,98390.89
2019-06-08T07:51:55.115Z,98390.89
2019-06-08T07:54:18.432Z,98389.15
2019-06-08T07:56:51.750Z,98396.23
2019-06-08T07:59:25.297Z,98390.67
2019-06-08T08:02:01.886Z,98400.23
2019-06-08T08:04:37.077Z,98395.91
2019-06-08T08:07:15.123Z,98402.97
2019-06-08T08:09:48.632Z,98396.53
2019-06-08T08:12:21.714Z,98399.69
2019-06-08T08:14:57.851Z,98397.64
2019-06-08T08:17:34.372Z,98398.67
2019-06-08T08:20:07.987Z,98392.75
2019-06-08T08:22:42.887Z,98403.80
2019-06-08T08:25:18.213Z,98401.08
2019-06-08T08:27:51.986Z,98401.69
2019-06-08T08:30:24.940Z,98402.98
2019-06-08T08:33:01.643Z,98408.30
2019-06-08T08:35:30.764Z,98409.73
2019-06-08T08:38:07.633Z,98409.73
2019-06-08T08:40:39.503Z,98412.42
2019-06-08T08:43:12.079Z,98422.82
2019-06-08T08:45:47.644Z,98412.34
2019-06-08T08:48:25.276Z,98408.65
2019-06-08T08:50:54.157Z,98412.22
2019-06-08T08:53:28.092Z,98412.22
2019-06-08T08:56:03.334Z,98416.11
2019-06-08T08:58:38.088Z,98411.28
2019-06-08T09:01:10.885Z,98418.73
2019-06-08T09:03:43.809Z,98421.68
2019-06-08T09:06:18.243Z,98423.60
2019-06-08T09:08:52.464Z,98410.58
2019-06-08T09:11:28.865Z,98414.63
2019-06-08T09:14:07.114Z,98422.19
2019-06-08T09:16:39.926Z,98423.87
2019-06-08T09:19:11.914Z,98421.58
2019-06-08T09:21:48.063Z,98432.77
2019-06-08T09:24:19.457Z,98431.43
2019-06-08T09:26:56.037Z,98424.17
2019-06-08T09:29:29.396Z,98439.08
2019-06-08T09:32:03.771Z,98427.34
2019-06-08T09:34:38.644Z,98434.16
2019-06-08T09:37:12.879Z,98424.13
2019-06-08T09:39:48.281Z,98429.86
2019-06-08T09:42:22.613Z,98430.94
2019-06-08T09:45:00.400Z,98422.81
2019-06-08T09:47:33.172Z,98434.34
2019-06-08T09:50:09.170Z,98425.28
2019-06-08T09:52:43.544Z,98434.48
2019-06-08T09:55:18.076Z,98428.40
2019-06-08T09:57:55.104Z,98428.06
2019-06-08T10:00:29.298Z,98434.59
2019-06-08T10:03:05.141Z,98440.05
2019-06-08T10:05:38.656Z,98434.33
2019-06-08T10:08:10.847Z,98437.38
2019-06-08T10:10:45.415Z,98431.52
2019-06-08T10:13:18.948Z,98434.30
2019-06-08T10:15:52.044Z,98435.66
2019-06-08T10:18:25.038Z,98429.95
2019-06-08T10:21:01.322Z,98435.72
2019-06-08T10:23:34.870Z,98440.41
2019-06-08T10:26:09.065Z,98439.73
2019-06-08T10:28:42.194Z,98434.69
2019-06-08T10:31:17.960Z,98441.41
2019-06-08T10:33:50.982Z,98439.77
2019-06-08T10:36:22.582Z,98442.39
2019-06-08T10:39:01.851Z,98441.66
2019-06-08T10:41:32.432Z,98439.36
2019-06-08T10:44:05.502Z,98438.97
2019-06-08T10:46:40.649Z,98430.73
2019-06-08T10:49:14.858Z,98428.89
2019-06-08T10:51:49.127Z,98443.09
2019-06-08T10:54:24.228Z,98441.09
2019-06-08T10:56:59.688Z,98444.79
2019-06-08T10:59:36.699Z,98442.67
2019-06-08T11:02:13.431Z,98442.73
2019-06-08T11:04:44.697Z,98434.09
2019-06-08T11:07:17.178Z,98439.56
2019-06-08T11:09:51.131Z,98433.11
2019-06-08T11:12:24.164Z,98441.43
2019-06-08T11:14:58.435Z,98438.39
2019-06-08T11:17:31.930Z,98437.16
2019-06-08T11:20:07.415Z,98438.10
2019-06-08T11:22:41.755Z,98435.41
2019-06-08T11:25:19.870Z,98441.48
2019-06-08T11:27:54.459Z,98433.64
2019-06-08T11:30:30.232Z,98438.69
2019-06-08T11:33:06.147Z,98435.88
2019-06-08T11:35:43.966Z,98441.51
2019-06-08T11:38:20.303Z,98446.92
2019-06-08T11:40:54.161Z,98446.05
2019-06-08T11:43:28.854Z,98438.59
2019-06-08T11:46:02.508Z,98439.89
2019-06-08T11:48:39.282Z,98434.16
2019-06-08T11:51:13.549Z,98442.73
2019-06-08T11:53:49.930Z,98445.20
2019-06-08T11:56:21.893Z,98444.84
2019-06-08T11:58:55.105Z,98446.22
2019-06-08T12:01:29.913Z,98446.69
2019-06-08T12:04:03.607Z,98441.60
2019-06-08T12:06:40.038Z,98440.77
2019-06-08T12:09:14.498Z,98441.38
2019-06-08T12:11:51.081Z,98437.74
2019-06-08T12:14:26.118Z,98435.85
2019-06-08T12:17:01.285Z,98433.17
2019-06-08T12:19:34.031Z,98429.86
2019-06-08T12:22:11.565Z,98435.52
2019-06-08T12:24:43.484Z,98431.02
2019-06-08T12:27:28.895Z,98438.23
2019-06-08T12:29:53.108Z,98431.48
2019-06-08T12:32:27.733Z,98440.17
2019-06-08T12:35:03.400Z,98434.33
2019-06-08T12:37:38.717Z,98435.63
2019-06-08T12:40:13.294Z,98439.95
2019-06-08T12:42:46.128Z,98438.59
2019-06-08T12:45:20.329Z,98440.50
2019-06-08T12:47:53.620Z,98439.56
2019-06-08T12:50:28.163Z,98443.52
2019-06-08T12:53:11.228Z,98456.41
2019-06-08T12:55:38.719Z,98454.72
2019-06-08T12:58:11.663Z,98452.05
2019-06-08T13:00:48.315Z,98449.59
2019-06-08T13:03:24.307Z,98447.86
2019-06-08T13:05:58.698Z,98462.73
2019-06-08T13:08:31.252Z,98453.94
2019-06-08T13:11:09.037Z,98449.20
2019-06-08T13:13:43.268Z,98450.89
2019-06-08T13:16:19.347Z,98462.25
2019-06-08T13:18:50.881Z,98458.93
2019-06-08T13:21:34.042Z,98465.09
2019-06-08T13:23:59.700Z,98464.52
2019-06-08T13:26:33.279Z,98470.95
2019-06-08T13:29:09.292Z,98465.91
2019-06-08T13:31:44.927Z,98461.61
2019-06-08T13:34:23.519Z,98456.55
2019-06-08T13:36:52.869Z,98472.64
2019-06-08T13:39:28.010Z,98467.79
2019-06-08T13:42:00.447Z,98469.78
2019-06-08T13:44:32.596Z,98466.92
2019-06-08T13:47:04.582Z,98468.56
2019-06-08T13:49:39.390Z,98463.84
2019-06-08T13:52:16.240Z,98494.01
2019-06-08T13:54:54.315Z,98482.64
2019-06-08T13:57:29.093Z,98485.39
2019-06-08T14:00:01.101Z,98481.80
2019-06-08T14:02:34.445Z,98491.89
2019-06-08T14:05:11.553Z,98499.00
2019-06-08T14:07:44.505Z,98495.00
2019-06-08T14:10:22.500Z,98481.86
2019-06-08T14:12:58.642Z,98495.88
2019-06-08T14:15:32.581Z,98500.29
2019-06-08T14:18:09.110Z,98498.12
2019-06-08T14:20:43.784Z,98499.14
2019-06-08T14:23:21.091Z,98497.66
2019-06-08T14:25:56.861Z,98507.93
2019-06-08T14:28:30.862Z,98499.46
2019-06-08T14:31:04.542Z,98508.55
2019-06-08T14:33:38.138Z,98495.12
2019-06-08T14:36:14.583Z,98501.61
2019-06-08T14:38:50.061Z,98506.84
2019-06-08T14:41:24.606Z,98505.31
2019-06-08T14:44:00.679Z,98494.38
2019-06-08T14:46:33.883Z,98493.85
2019-06-08T14:49:06.476Z,98500.32
2019-06-08T14:51:50.434Z,98509.09
2019-06-08T14:54:27.219Z,98497.21
2019-06-08T14:56:59.793Z,98499.75
2019-06-08T14:59:32.389Z,98499.86
2019-06-08T15:02:07.861Z,98498.02
2019-06-08T15:04:40.633Z,98496.03
2019-06-08T15:07:13.257Z,98504.63
2019-06-08T15:09:47.830Z,98532.36
2019-06-08T15:12:23.485Z,98516.76
2019-06-08T15:15:00.347Z,98498.13
2019-06-08T15:17:33.881Z,98514.17
2019-06-08T15:20:09.251Z,98519.16
2019-06-08T15:22:42.418Z,98523.80
2019-06-08T15:25:18.546Z,98539.48
2019-06-08T15:27:54.322Z,98532.17
2019-06-08T15:30:29.328Z,98551.84
2019-06-08T15:33:00.576Z,98533.69
2019-06-08T15:35:33.265Z,98544.89
2019-06-08T15:38:05.470Z,98551.20
2019-06-08T15:40:38.678Z,98566.73
2019-06-08T15:43:12.390Z,98560.20
2019-06-08T15:45:51.201Z,98553.31
2019-06-08T15:48:22.112Z,98564.61
2019-06-08T15:50:58.813Z,98561.16
2019-06-08T15:53:34.065Z,98571.89
2019-06-08T15:56:08.397Z,98593.00
2019-06-08T15:58:42.935Z,98557.46
2019-06-08T16:01:15.704Z,98570.64
2019-06-08T16:03:50.166Z,98581.81
2019-06-08T16:06:23.563Z,98567.50
2019-06-08T16:08:56.106Z,98629.98
2019-06-08T16:11:30.220Z,98603.30
2019-06-08T16:14:02.851Z,98598.53
2019-06-08T16:16:36.846Z,98616.81
2019-06-08T16:19:12.338Z,98623.41
2019-06-08T16:21:44.647Z,98623.59
2019-06-08T16:24:18.173Z,98628.19
2019-06-08T16:26:53.496Z,98626.55
2019-06-08T16:29:28.833Z,98639.34
2019-06-08T16:32:03.423Z,98632.80
2019-06-08T16:34:36.280Z,98640.14
2019-06-08T16:37:14.873Z,98635.64
2019-06-08T16:39:49.125Z,98662.35
2019-06-08T16:42:23.579Z,98669.06
2019-06-08T16:44:57.126Z,98677.78
2019-06-08T16:47:31.081Z,98665.98
2019-06-08T16:50:05.692Z,98666.41
2019-06-08T16:52:39.276Z,98712.08
2019-06-08T16:55:12.399Z,98707.02
2019-06-08T16:57:51.418Z,98692.16
2019-06-08T17:00:37.185Z,98690.45
2019-06-08T17:03:00.716Z,98701.75
2019-06-08T17:05:33.408Z,98698.19
2019-06-08T17:08:08.220Z,98693.06
2019-06-08T17:10:42.318Z,98699.52
2019-06-08T17:13:14.789Z,98718.91
2019-06-08T17:15:49.897Z,98707.27
2019-06-08T17:18:23.243Z,98720.31
2019-06-08T17:20:56.674Z,98712.30
2019-06-08T17:23:30.687Z,98716.53
2019-06-08T17:26:03.417Z,98719.86
2019-06-08T17:28:37.205Z,98731.20
2019-06-08T17:31:09.025Z,98727.53
2019-06-08T17:33:41.483Z,98730.70
2019-06-08T17:36:16.998Z,98763.44
2019-06-08T17:38:50.417Z,98747.62
2019-06-08T17:41:25.186Z,98773.31
2019-06-08T17:43:59.837Z,98767.92
2019-06-08T17:46:36.468Z,98773.52
2019-06-08T17:49:12.177Z,98772.53
2019-06-08T17:51:46.354Z,98776.90
2019-06-08T17:54:20.937Z,98782.10
2019-06-08T17:56:55.523Z,98792.32
2019-06-08T17:59:29.259Z,98803.16
2019-06-08T18:02:08.069Z,98807.16
2019-06-08T18:04:42.751Z,98826.87
2019-06-08T18:07:18.033Z,98827.70
2019-06-08T18:09:50.901Z,98832.40
2019-06-08T18:12:26.984Z,98839.69
2019-06-08T18:14:58.126Z,98846.69
2019-06-08T18:17:30.542Z,98847.75
2019-06-08T18:20:03.368Z,98844.84
2019-06-08T18:22:39.118Z,98842.18
2019-06-08T18:25:10.652Z,98840.32
2019-06-08T18:27:58.438Z,98856.54
2019-06-08T18:30:21.055Z,98848.83
2019-06-08T18:32:55.300Z,98857.32
2019-06-08T18:35:31.984Z,98850.91
2019-06-08T18:38:07.603Z,98857.52
2019-06-08T18:40:42.294Z,98858.95
2019-06-08T18:43:17.047Z,98869.75
2019-06-08T18:45:52.741Z,98859.74
2019-06-08T18:48:28.323Z,98881.16
2019-06-08T18:51:02.061Z,98873.81
2019-06-08T18:53:49.100Z,98881.69
2019-06-08T18:56:09.322Z,98877.78
2019-06-08T18:58:43.843Z,98896.30
2019-06-08T19:01:21.628Z,98889.67
2019-06-08T19:03:52.927Z,98896.61
2019-06-08T19:06:27.908Z,98896.30
2019-06-08T19:09:01.817Z,98900.80
2019-06-08T19:11:37.742Z,98898.59
2019-06-08T19:14:12.823Z,98915.56
2019-06-08T19:16:49.879Z,98914.50
2019-06-08T19:19:22.304Z,98917.34
2019-06-08T19:21:57.936Z,98911.32
2019-06-08T19:24:30.834Z,98919.55
2019-06-08T19:27:03.674Z,98928.00
2019-06-08T19:29:41.790Z,98938.78
2019-06-08T19:32:17.073Z,98936.92
2019-06-08T19:34:53.865Z,98936.96
2019-06-08T19:37:30.639Z,98945.62
2019-06-08T19:40:07.454Z,98948.14
2019-06-08T19:42:51.061Z,98943.09
2019-06-08T19:45:18.185Z,98945.05
2019-06-08T19:47:51.313Z,98951.59
2019-06-08T19:50:23.992Z,98949.08
2019-06-08T19:52:58.051Z,98951.32
2019-06-08T19:55:32.300Z,98959.61
2019-06-08T19:58:08.793Z,98956.31
2019-06-08T20:00:42.284Z,98957.37
2019-06-08T20:03:17.752Z,98961.82
2019-06-08T20:05:54.555Z,98970.39
2019-06-08T20:08:29.746Z,98970.94
2019-06-08T20:11:03.355Z,98972.31
2019-06-08T20:13:37.543Z,98972.90
2019-06-08T20:16:12.073Z,98976.97
2019-06-08T20:18:48.653Z,98972.08
2019-06-08T20:21:23.752Z,98984.04
2019-06-08T20:23:58.495Z,98986.77
2019-06-08T20:26:34.054Z,98984.69
2019-06-08T20:29:15.508Z,98995.63
2019-06-08T20:31:41.303Z,98989.14
2019-06-08T20:34:17.555Z,98991.70
2019-06-08T20:36:50.716Z,98999.73
2019-06-08T20:39:23.533Z,99003.13
2019-06-08T20:41:58.538Z,99006.20
2019-06-08T20:44:31.427Z,99001.52
2019-06-08T20:47:03.816Z,99008.97
2019-06-08T20:49:37.221Z,99011.52
2019-06-08T20:52:12.145Z,99012.41
2019-06-08T20:54:48.761Z,99020.44
2019-06-08T20:57:23.029Z,99019.31
2019-06-08T20:59:58.429Z,99027.28
2019-06-08T21:02:31.622Z,99015.50
2019-06-08T21:05:03.923Z,99024.31
2019-06-08T21:07:37.705Z,99025.45
2019-06-08T21:10:09.557Z,99026.83
2019-06-08T21:12:42.361Z,99028.22
2019-06-08T21:15:14.348Z,99034.06
2019-06-08T21:17:50.663Z,99035.45
2019-06-08T21:20:22.324Z,99035.14
2019-06-08T21:22:59.859Z,99036.25
2019-06-08T21:25:34.303Z,99034.35
2019-06-08T21:28:07.948Z,99030.81
2019-06-08T21:30:41.792Z,99032.69
2019-06-08T21:33:14.623Z,99044.04
2019-06-08T21:35:49.601Z,99039.88
2019-06-08T21:38:24.082Z,99045.11
2019-06-08T21:41:02.534Z,99047.02
2019-06-08T21:43:34.309Z,99048.11
2019-06-08T21:46:09.293Z,99053.39
2019-06-08T21:48:42.563Z,99052.05
2019-06-08T21:51:16.223Z,99057.27
2019-06-08T21:53:51.114Z,99053.16
2019-06-08T21:56:24.612Z,99058.14
2019-06-08T21:59:00.902Z,99062.31
2019-06-08T22:01:34.446Z,99064.28
2019-06-08T22:04:07.818Z,99069.49
2019-06-08T22:06:42.211Z,99071.97
2019-06-08T22:09:14.550Z,99066.48
2019-06-08T22:11:47.388Z,99069.80
2019-06-08T22:14:24.080Z,99070.62
2019-06-08T22:17:00.909Z,99081.05
2019-06-08T22:19:31.600Z,99075.04
2019-06-08T22:22:04.177Z,99075.84
2019-06-08T22:24:38.293Z,99075.58
2019-06-08T22:27:10.627Z,99077.77
2019-06-08T22:29:45.153Z,99085.76
2019-06-08T22:32:19.432Z,99086.02
2019-06-08T22:34:53.084Z,99096.19
2019-06-08T22:37:27.663Z,99101.40
2019-06-08T22:40:01.782Z,99104.95
2019-06-08T22:42:40.636Z,99110.70
2019-06-08T22:45:17.533Z,99113.19
2019-06-08T22:47:49.620Z,99118.69
2019-06-08T22:50:24.234Z,99123.61
2019-06-08T22:52:59.769Z,99122.79
2019-06-08T22:55:32.686Z,99118.97
2019-06-08T22:58:07.806Z,99122.27
2019-06-08T23:00:52.322Z,99123.06
2019-06-08T23:03:18.472Z,99115.10
2019-06-08T23:05:51.253Z,99119.51
2019-06-08T23:08:25.498Z,99117.31
2019-06-08T23:10:59.362Z,99105.80
2019-06-08T23:13:32.448Z,99103.59
2019-06-08T23:16:08.832Z,99097.84
2019-06-08T23:18:40.860Z,99093.17
2019-06-08T23:21:13.768Z,99089.60
2019-06-08T23:23:47.762Z,99094.27
2019-06-08T23:26:20.721Z,99094.48
2019-06-08T23:28:54.371Z,99091.46
2019-06-08T23:31:29.237Z,99085.75
2019-06-08T23:34:05.204Z,99092.86
2019-06-08T23:36:51.655Z,99087.09
2019-06-08T23:39:12.664Z,99098.03
2019-06-08T23:41:48.294Z,99093.09
2019-06-08T23:44:21.969Z,99090.59
2019-06-08T23:46:59.753Z,99088.14
2019-06-08T23:49:33.597Z,99091.41
2019-06-08T23:52:10.472Z,99097.44
2019-06-08T23:54:43.900Z,99091.12
2019-06-08T23:57:18.021Z,99089.22
2019-06-08T23:59:51.579Z,99095.82
